| Date | Time | Temp. (oF) | Dew Point (oF) | Rel. Hum. (%) | Press. (in.) | Wind Dir. | Wind Speed (mph) | Hourly Rainfall (in.) |
|
|---|---|---|---|---|---|---|---|---|---|
| 1 | 11/13 | 00:00 | 28 | 24 | 87 | 30.54 | SW | 0 | 0.00 |
| 2 | 11/12 | 23:00 | 30 | 25 | 83 | 30.53 | SW | 0 | 0.00 |
| 3 | 11/12 | 22:00 | 32 | 26 | 79 | 30.53 | SW | 0 | 0.00 |
| 4 | 11/12 | 21:00 | 35 | 27 | 74 | 30.52 | SW | 1 | 0.00 |
| 5 | 11/12 | 20:00 | 38 | 27 | 65 | 30.51 | SW | 0 | 0.00 |
| 6 | 11/12 | 19:00 | 42 | 26 | 55 | 30.49 | WNW | 0 | 0.00 |
| 7 | 11/12 | 18:00 | 44 | 26 | 50 | 30.47 | WSW | 1 | 0.00 |
| 8 | 11/12 | 17:00 | 48 | 27 | 44 | 30.45 | WNW | 2 | 0.00 |
| 9 | 11/12 | 16:00 | 50 | 26 | 40 | 30.43 | NNW | 4 | 0.00 |
| 10 | 11/12 | 15:00 | 50 | 25 | 39 | 30.42 | NNE | 3 | 0.00 |
| 11 | 11/12 | 14:00 | 51 | 26 | 38 | 30.44 | WNW | 9 | 0.00 |
| 12 | 11/12 | 13:00 | 50 | 27 | 41 | 30.45 | NW | 4 | 0.00 |
| 13 | 11/12 | 12:00 | 48 | 26 | 43 | 30.47 | NNW | 7 | 0.00 |
| 14 | 11/12 | 11:00 | 45 | 26 | 48 | 30.50 | WNW | 7 | 0.00 |
| 15 | 11/12 | 10:00 | 43 | 27 | 55 | 30.51 | WSW | 4 | 0.00 |
| 16 | 11/12 | 09:00 | 37 | 31 | 79 | 30.51 | W | 2 | 0.00 |
| 17 | 11/12 | 08:00 | 26 | 25 | 97 | 30.50 | WSW | 0 | 0.00 |
| 18 | 11/12 | 07:00 | 23 | 20 | 91 | 30.47 | WSW | 1 | 0.00 |
| 19 | 11/12 | 06:00 | 25 | 23 | 92 | 30.45 | W | 1 | 0.00 |
| 20 | 11/12 | 05:00 | 24 | 21 | 90 | 30.44 | WSW | 0 | 0.00 |
| 21 | 11/12 | 04:00 | 25 | 21 | 86 | 30.42 | W | 1 | 0.00 |
| 22 | 11/12 | 03:00 | 26 | 22 | 85 | 30.42 | W | 2 | 0.00 |
| 23 | 11/12 | 02:00 | 31 | 23 | 73 | 30.41 | WNW | 2 | 0.00 |
| 24 | 11/12 | 01:00 | 26 | 22 | 85 | 30.41 | WNW | 1 | 0.00 |